createdAt,value
2024-05-09T00:00:47.904Z,47.85
2024-05-09T00:03:15.938Z,46.94
2024-05-09T00:05:45.250Z,47.96
2024-05-09T00:08:13.021Z,49.30
2024-05-09T00:10:41.500Z,47.86
2024-05-09T00:13:11.011Z,47.11
2024-05-09T00:15:39.551Z,49.81
2024-05-09T00:18:09.366Z,48.25
2024-05-09T00:20:40.351Z,50.78
2024-05-09T00:23:14.185Z,50.27
2024-05-09T00:25:45.688Z,49.76
2024-05-09T00:28:13.717Z,49.83
2024-05-09T00:30:41.791Z,49.55
2024-05-09T00:33:11.241Z,50.51
2024-05-09T00:35:41.746Z,50.22
2024-05-09T00:38:10.599Z,50.61
2024-05-09T00:40:43.308Z,50.18
2024-05-09T00:43:14.178Z,48.72
2024-05-09T00:45:43.950Z,49.43
2024-05-09T00:48:15.212Z,49.94
2024-05-09T00:50:47.431Z,49.80
2024-05-09T00:53:18.956Z,50.25
2024-05-09T00:55:48.000Z,50.45
2024-05-09T00:58:18.452Z,49.52
2024-05-09T01:00:46.873Z,50.90
2024-05-09T01:03:14.866Z,50.85
2024-05-09T01:05:44.792Z,49.72
2024-05-09T01:08:14.852Z,51.48
2024-05-09T01:10:45.029Z,51.83
2024-05-09T01:13:14.064Z,51.19
2024-05-09T01:15:42.189Z,51.17
2024-05-09T01:18:12.386Z,50.25
2024-05-09T01:20:43.954Z,52.50
2024-05-09T01:23:15.775Z,50.36
2024-05-09T01:25:46.666Z,51.94
2024-05-09T01:28:16.675Z,51.98
2024-05-09T01:30:44.481Z,51.18
2024-05-09T01:33:13.172Z,51.44
2024-05-09T01:35:42.788Z,51.87
2024-05-09T01:38:17.840Z,52.81
2024-05-09T01:40:46.947Z,51.73
2024-05-09T01:43:15.331Z,52.47
2024-05-09T01:45:42.946Z,52.17
2024-05-09T01:48:11.558Z,52.03
2024-05-09T01:50:42.367Z,50.55
2024-05-09T01:53:13.595Z,50.89
2024-05-09T01:55:43.730Z,52.17
2024-05-09T01:58:11.520Z,52.81
2024-05-09T02:00:42.368Z,52.60
2024-05-09T02:03:16.064Z,52.73
2024-05-09T02:05:47.788Z,53.37
2024-05-09T02:08:20.698Z,53.84
2024-05-09T02:10:49.857Z,53.17
2024-05-09T02:13:19.165Z,53.10
2024-05-09T02:15:47.331Z,53.16
2024-05-09T02:18:15.489Z,54.93
2024-05-09T02:20:43.862Z,54.52
2024-05-09T02:23:12.859Z,52.93
2024-05-09T02:25:42.696Z,52.67
2024-05-09T02:28:10.214Z,53.50
2024-05-09T02:30:40.930Z,52.67
2024-05-09T02:33:12.835Z,52.87
2024-05-09T02:35:43.986Z,52.75
2024-05-09T02:38:13.508Z,53.24
2024-05-09T02:40:41.796Z,52.99
2024-05-09T02:43:12.983Z,51.96
2024-05-09T02:45:41.606Z,51.86
2024-05-09T02:48:13.954Z,52.64
2024-05-09T02:50:44.410Z,52.64
2024-05-09T02:53:12.994Z,53.20
2024-05-09T02:55:42.177Z,54.55
2024-05-09T02:58:11.274Z,54.46
2024-05-09T03:00:41.739Z,54.46
2024-05-09T03:03:13.748Z,56.45
2024-05-09T03:05:44.868Z,55.24
2024-05-09T03:08:13.246Z,55.08
2024-05-09T03:10:41.167Z,54.75
2024-05-09T03:13:10.124Z,55.13
2024-05-09T03:15:38.375Z,55.79
2024-05-09T03:18:07.187Z,55.58
2024-05-09T03:20:36.643Z,55.18
2024-05-09T03:23:09.651Z,56.89
2024-05-09T03:25:39.131Z,55.97
2024-05-09T03:28:07.638Z,56.38
2024-05-09T03:30:40.716Z,55.34
2024-05-09T03:33:19.437Z,55.66
2024-05-09T03:35:49.050Z,54.88
2024-05-09T03:38:17.428Z,55.81
2024-05-09T03:40:50.233Z,55.68
2024-05-09T03:43:20.174Z,54.86
2024-05-09T03:45:50.060Z,54.62
2024-05-09T03:48:19.251Z,54.40
2024-05-09T03:50:47.404Z,54.16
2024-05-09T03:53:15.759Z,53.47
2024-05-09T03:55:43.604Z,54.77
2024-05-09T03:58:13.153Z,55.23
2024-05-09T04:00:42.368Z,54.61
2024-05-09T04:03:12.082Z,53.90
2024-05-09T04:05:42.969Z,54.48
2024-05-09T04:08:15.302Z,54.37
2024-05-09T04:10:43.912Z,52.52
2024-05-09T04:13:11.700Z,53.18
2024-05-09T04:15:40.000Z,52.19
2024-05-09T04:18:08.527Z,52.10
2024-05-09T04:20:39.585Z,50.32
2024-05-09T04:23:14.421Z,47.76
2024-05-09T04:25:45.152Z,49.40
2024-05-09T04:28:14.557Z,51.49
2024-05-09T04:30:43.442Z,49.08
2024-05-09T04:33:13.490Z,49.47
2024-05-09T04:35:43.725Z,50.01
2024-05-09T04:38:13.148Z,48.98
2024-05-09T04:40:41.384Z,46.96
2024-05-09T04:43:15.533Z,47.67
2024-05-09T04:45:44.204Z,48.60
2024-05-09T04:48:12.529Z,48.95
2024-05-09T04:50:40.483Z,50.78
2024-05-09T04:53:11.543Z,52.57
2024-05-09T04:55:40.722Z,53.93
2024-05-09T04:58:09.621Z,55.35
2024-05-09T05:00:40.059Z,56.07
2024-05-09T05:03:13.432Z,55.01
2024-05-09T05:05:45.586Z,54.47
2024-05-09T05:08:19.514Z,56.04
2024-05-09T05:10:49.126Z,56.14
2024-05-09T05:13:21.224Z,55.32
2024-05-09T05:15:57.553Z,57.90
2024-05-09T05:18:29.341Z,59.36
2024-05-09T05:20:58.556Z,61.40
2024-05-09T05:23:26.900Z,63.52
2024-05-09T05:25:55.905Z,64.50
2024-05-09T05:28:24.332Z,62.92
2024-05-09T05:30:52.123Z,65.26
2024-05-09T05:33:20.268Z,63.80
2024-05-09T05:35:48.580Z,63.84
2024-05-09T05:38:17.005Z,63.39
2024-05-09T05:40:44.792Z,64.00
2024-05-09T05:43:19.390Z,68.12
2024-05-09T05:45:47.442Z,71.39
2024-05-09T05:48:17.848Z,70.73
2024-05-09T05:50:48.420Z,69.85
2024-05-09T05:53:16.418Z,71.06
2024-05-09T05:55:44.316Z,71.32
2024-05-09T05:58:12.796Z,69.92
2024-05-09T06:00:42.006Z,69.06
2024-05-09T06:03:13.462Z,68.34
2024-05-09T06:05:44.396Z,64.25
2024-05-09T06:08:12.824Z,65.40
2024-05-09T06:10:41.890Z,62.93
2024-05-09T06:13:14.251Z,63.69
2024-05-09T06:15:43.721Z,61.44
2024-05-09T06:18:14.662Z,60.92
2024-05-09T06:20:43.950Z,57.45
2024-05-09T06:23:12.925Z,58.12
2024-05-09T06:25:42.892Z,58.97
2024-05-09T06:28:14.038Z,58.85
2024-05-09T06:30:43.187Z,54.35
2024-05-09T06:33:14.345Z,52.93
2024-05-09T06:35:46.318Z,53.19
2024-05-09T06:38:14.492Z,53.55
2024-05-09T06:40:44.752Z,52.66
2024-05-09T06:43:19.179Z,51.70
2024-05-09T06:45:50.355Z,53.16
2024-05-09T06:48:20.169Z,53.32
2024-05-09T06:50:51.182Z,54.24
2024-05-09T06:53:23.948Z,53.20
2024-05-09T06:55:52.161Z,54.65
2024-05-09T06:58:19.801Z,52.98
2024-05-09T07:00:50.296Z,49.91
2024-05-09T07:03:19.813Z,49.24
2024-05-09T07:05:49.357Z,49.54
2024-05-09T07:08:19.350Z,48.41
2024-05-09T07:10:48.737Z,48.23
2024-05-09T07:13:16.618Z,48.13
2024-05-09T07:15:44.619Z,48.09
2024-05-09T07:18:18.442Z,48.07
2024-05-09T07:20:48.414Z,47.67
2024-05-09T07:23:17.184Z,47.77
2024-05-09T07:25:46.142Z,49.46
2024-05-09T07:28:18.204Z,51.19
2024-05-09T07:30:46.772Z,53.65
2024-05-09T07:33:19.562Z,53.47
2024-05-09T07:35:48.557Z,52.06
2024-05-09T07:38:17.036Z,52.94
2024-05-09T07:40:50.375Z,49.12
2024-05-09T07:43:18.282Z,49.65
2024-05-09T07:45:52.610Z,49.01
2024-05-09T07:52:38.889Z,49.40
2024-05-09T07:53:49.322Z,50.56
2024-05-09T07:56:23.334Z,50.38
2024-05-09T07:58:56.708Z,50.72
2024-05-09T08:01:28.507Z,49.15
2024-05-09T08:03:58.201Z,50.14
2024-05-09T08:06:26.955Z,47.23
2024-05-09T08:08:55.364Z,45.61
2024-05-09T08:11:24.605Z,45.40
2024-05-09T08:13:54.112Z,47.89
2024-05-09T08:16:23.979Z,48.54
2024-05-09T08:18:51.913Z,52.73
2024-05-09T08:21:19.771Z,56.03
2024-05-09T08:23:47.992Z,55.94
2024-05-09T08:26:16.884Z,58.17
2024-05-09T08:28:46.390Z,53.46
2024-05-09T08:31:15.865Z,51.59
2024-05-09T08:33:51.898Z,50.76
2024-05-09T08:36:21.100Z,46.32
2024-05-09T08:38:55.077Z,46.12
2024-05-09T08:41:22.855Z,42.67
2024-05-09T08:43:50.906Z,41.52
2024-05-09T08:46:19.809Z,44.06
2024-05-09T08:48:50.113Z,48.12
2024-05-09T08:51:21.186Z,52.14
2024-05-09T08:53:50.196Z,56.01
2024-05-09T08:56:20.743Z,58.00
2024-05-09T08:58:55.954Z,55.87
2024-05-09T09:01:25.325Z,50.83
2024-05-09T09:03:54.014Z,48.19
2024-05-09T09:06:23.788Z,49.57
2024-05-09T09:08:53.829Z,48.68
2024-05-09T09:11:23.889Z,49.37
2024-05-09T09:13:53.198Z,50.39
2024-05-09T09:16:33.359Z,50.00
2024-05-09T09:19:06.436Z,47.12
2024-05-09T09:21:36.558Z,48.21
2024-05-09T09:24:05.025Z,50.03
2024-05-09T09:26:33.441Z,54.29
2024-05-09T09:29:04.557Z,56.57
2024-05-09T09:31:32.277Z,54.41
2024-05-09T09:34:07.517Z,53.63
2024-05-09T09:36:39.487Z,52.07
2024-05-09T09:39:10.023Z,51.71
2024-05-09T09:41:39.973Z,48.92
2024-05-09T09:44:11.013Z,48.52
2024-05-09T09:46:41.182Z,48.46
2024-05-09T09:49:10.236Z,47.52
2024-05-09T09:51:43.806Z,47.69
2024-05-09T09:54:14.055Z,45.01
2024-05-09T09:56:44.535Z,45.68
2024-05-09T09:59:14.427Z,47.49
2024-05-09T10:01:46.431Z,46.45
2024-05-09T10:04:19.302Z,47.11
2024-05-09T10:06:53.446Z,48.25
2024-05-09T10:09:22.138Z,52.91
2024-05-09T10:12:00.001Z,56.83
2024-05-09T10:14:31.280Z,54.45
2024-05-09T10:17:05.788Z,55.47
2024-05-09T10:19:35.656Z,56.64
2024-05-09T10:22:06.329Z,54.64
2024-05-09T10:24:52.182Z,48.56
2024-05-09T10:27:31.846Z,46.66
2024-05-09T10:30:09.097Z,46.00
2024-05-09T10:32:42.493Z,44.74
2024-05-09T10:35:13.235Z,45.09
2024-05-09T10:37:41.954Z,45.88
2024-05-09T10:42:46.800Z,51.20
2024-05-09T10:45:16.808Z,47.80
2024-05-09T10:47:46.388Z,47.42
2024-05-09T10:50:22.297Z,46.52
2024-05-09T10:52:58.630Z,45.57
2024-05-09T10:55:27.128Z,43.86
2024-05-09T10:57:56.278Z,44.40
2024-05-09T11:00:36.144Z,44.73
2024-05-09T11:03:13.005Z,45.25
2024-05-09T11:05:44.490Z,46.54
2024-05-09T11:08:13.748Z,46.71
2024-05-09T11:10:43.922Z,48.67
2024-05-09T11:13:12.625Z,47.94
2024-05-09T11:15:43.375Z,47.89
2024-05-09T11:18:25.333Z,47.61
2024-05-09T11:20:55.213Z,47.45
2024-05-09T11:23:26.173Z,48.25
2024-05-09T11:25:59.115Z,46.09
2024-05-09T11:28:31.813Z,45.69
2024-05-09T11:31:08.228Z,44.99
2024-05-09T11:33:39.315Z,45.42
2024-05-09T11:36:10.928Z,45.43
2024-05-09T11:38:41.042Z,46.35
2024-05-09T11:41:17.552Z,49.41
2024-05-09T11:43:45.632Z,49.21
2024-05-09T11:46:13.663Z,51.54
2024-05-09T11:48:41.852Z,51.40
2024-05-09T11:51:09.574Z,50.32
2024-05-09T11:53:37.410Z,49.68
2024-05-09T11:56:06.050Z,49.84
2024-05-09T11:58:37.223Z,49.03
2024-05-09T12:01:07.764Z,46.55
2024-05-09T12:03:38.142Z,45.94
2024-05-09T12:06:06.803Z,46.74
2024-05-09T12:08:34.801Z,48.08
2024-05-09T12:11:02.589Z,46.88
2024-05-09T12:13:31.029Z,49.00
2024-05-09T12:15:59.809Z,48.43
2024-05-09T12:18:28.659Z,47.64
2024-05-09T12:20:57.731Z,45.88
2024-05-09T12:23:27.058Z,46.42
2024-05-09T12:25:55.114Z,45.57
2024-05-09T12:28:23.762Z,45.67
2024-05-09T12:30:52.172Z,44.95
2024-05-09T12:33:21.222Z,46.24
2024-05-09T12:35:50.978Z,45.75
2024-05-09T12:38:19.189Z,45.07
2024-05-09T12:40:47.906Z,43.82
2024-05-09T12:43:16.246Z,46.49
2024-05-09T12:45:44.019Z,48.27
2024-05-09T12:48:13.238Z,49.75
2024-05-09T12:50:41.742Z,50.64
2024-05-09T12:53:10.036Z,47.86
2024-05-09T12:55:48.274Z,49.52
2024-05-09T12:58:25.437Z,48.25
2024-05-09T13:00:53.630Z,47.70
2024-05-09T13:03:22.793Z,46.99
2024-05-09T13:05:51.966Z,47.54
2024-05-09T13:08:21.496Z,46.08
2024-05-09T13:10:50.466Z,44.76
2024-05-09T13:13:19.715Z,45.88
2024-05-09T13:15:47.594Z,49.24
2024-05-09T13:18:15.549Z,55.51
2024-05-09T13:20:44.394Z,58.44
2024-05-09T13:23:12.126Z,58.82
2024-05-09T13:25:40.007Z,61.79
2024-05-09T13:28:08.781Z,60.99
2024-05-09T13:30:40.766Z,58.61
2024-05-09T13:33:13.842Z,57.61
2024-05-09T13:35:47.580Z,55.80
2024-05-09T13:38:22.125Z,58.41
2024-05-09T13:40:51.386Z,56.23
2024-05-09T13:43:21.056Z,54.68
2024-05-09T13:45:49.442Z,55.59
2024-05-09T13:48:17.263Z,53.71
2024-05-09T13:50:50.331Z,52.42
2024-05-09T13:53:17.928Z,49.45
2024-05-09T13:55:48.484Z,50.01
2024-05-09T13:58:16.800Z,48.46
2024-05-09T14:00:48.983Z,48.06
2024-05-09T14:03:20.329Z,48.73
2024-05-09T14:05:51.135Z,50.17
2024-05-09T14:08:23.067Z,48.92
2024-05-09T14:10:51.446Z,50.35
2024-05-09T14:13:20.690Z,52.12
2024-05-09T14:15:50.432Z,52.78
2024-05-09T14:18:20.199Z,50.76
2024-05-09T14:20:50.605Z,49.06
2024-05-09T14:23:18.856Z,48.12
2024-05-09T14:25:51.294Z,48.69
2024-05-09T14:28:22.618Z,49.90
2024-05-09T14:30:51.290Z,49.82
2024-05-09T14:33:26.850Z,48.26
2024-05-09T14:36:00.072Z,48.61
2024-05-09T14:38:30.496Z,47.90
2024-05-09T14:40:58.561Z,45.47
2024-05-09T14:43:26.845Z,46.73
2024-05-09T14:45:56.353Z,48.22
2024-05-09T14:48:25.946Z,45.35
2024-05-09T14:50:56.054Z,44.68
2024-05-09T14:53:27.711Z,46.34
2024-05-09T14:55:56.857Z,46.89
2024-05-09T14:58:26.699Z,48.48
2024-05-09T15:00:57.523Z,49.34
2024-05-09T15:03:25.460Z,50.25
2024-05-09T15:05:53.475Z,51.47
2024-05-09T15:08:21.397Z,54.57
2024-05-09T15:10:50.838Z,54.64
2024-05-09T15:13:21.692Z,54.91
2024-05-09T15:15:50.081Z,55.37
2024-05-09T15:18:18.272Z,55.11
2024-05-09T15:20:46.666Z,54.44
2024-05-09T15:23:15.770Z,54.92
2024-05-09T15:25:45.745Z,55.07
2024-05-09T15:28:13.722Z,56.49
2024-05-09T15:30:46.543Z,55.94
2024-05-09T15:33:16.140Z,56.58
2024-05-09T15:35:47.636Z,55.16
2024-05-09T15:38:16.456Z,55.91
2024-05-09T15:40:44.650Z,56.79
2024-05-09T15:43:15.980Z,56.58
2024-05-09T15:45:44.891Z,54.70
2024-05-09T15:48:15.047Z,55.82
2024-05-09T15:50:43.681Z,56.74
2024-05-09T15:53:13.541Z,55.62
2024-05-09T15:55:42.696Z,54.37
2024-05-09T15:58:10.923Z,55.64
2024-05-09T16:00:43.694Z,55.45
2024-05-09T16:03:14.874Z,54.36
2024-05-09T16:05:46.346Z,53.33
2024-05-09T16:08:17.045Z,55.14
2024-05-09T16:10:47.287Z,55.52
2024-05-09T16:13:17.441Z,53.34
2024-05-09T16:15:47.418Z,53.20
2024-05-09T16:18:15.695Z,53.89
2024-05-09T16:20:49.394Z,53.67
2024-05-09T16:23:18.074Z,53.37
2024-05-09T16:25:48.488Z,53.92
2024-05-09T16:28:17.084Z,53.87
2024-05-09T16:30:47.522Z,54.19
2024-05-09T16:33:15.588Z,52.96
2024-05-09T16:35:47.070Z,53.87
2024-05-09T16:38:15.491Z,52.58
2024-05-09T16:40:46.378Z,52.26
2024-05-09T16:43:20.608Z,52.97
2024-05-09T16:48:20.236Z,51.53
2024-05-09T16:50:50.700Z,52.03
2024-05-09T16:53:19.901Z,50.52
2024-05-09T16:55:49.933Z,50.09
2024-05-09T16:58:23.593Z,50.82
2024-05-09T17:00:51.334Z,50.98
2024-05-09T17:03:21.360Z,49.85
2024-05-09T17:05:50.961Z,50.86
2024-05-09T17:08:20.006Z,48.92
2024-05-09T17:10:51.287Z,50.40
2024-05-09T17:13:21.917Z,49.51
2024-05-09T17:15:51.290Z,48.58
2024-05-09T17:18:19.986Z,50.51
2024-05-09T17:20:51.936Z,48.81
2024-05-09T17:23:24.074Z,48.79
2024-05-09T17:25:53.315Z,50.14
2024-05-09T17:28:21.659Z,51.00
2024-05-09T17:30:53.509Z,51.12
2024-05-09T17:33:21.544Z,51.30
2024-05-09T17:35:52.459Z,49.83
2024-05-09T17:38:23.093Z,50.06
2024-05-09T17:40:53.372Z,49.35
2024-05-09T17:43:24.530Z,50.49
2024-05-09T17:45:52.756Z,48.86
2024-05-09T17:48:21.642Z,49.12
2024-05-09T17:50:51.571Z,50.88
2024-05-09T17:53:20.579Z,50.55
2024-05-09T17:55:49.647Z,50.48
2024-05-09T17:58:17.663Z,50.38
2024-05-09T18:00:46.216Z,51.11
2024-05-09T18:03:17.569Z,50.54
2024-05-09T18:05:46.612Z,52.31
2024-05-09T18:08:15.673Z,51.64
2024-05-09T18:10:46.129Z,52.20
2024-05-09T18:13:15.623Z,52.12
2024-05-09T18:15:44.555Z,52.19
2024-05-09T18:18:13.495Z,52.74
2024-05-09T18:20:44.801Z,52.30
2024-05-09T18:23:18.855Z,51.29
2024-05-09T18:25:48.508Z,51.01
2024-05-09T18:28:17.393Z,50.19
2024-05-09T18:30:46.411Z,50.98
2024-05-09T18:33:14.568Z,51.45
2024-05-09T18:35:45.056Z,50.29
2024-05-09T18:38:14.679Z,52.48
2024-05-09T18:40:45.001Z,52.24
2024-05-09T18:43:15.270Z,51.50
2024-05-09T18:45:43.487Z,51.32
2024-05-09T18:48:12.239Z,51.17
2024-05-09T18:50:41.361Z,51.23
2024-05-09T18:53:12.696Z,51.69
2024-05-09T18:55:42.687Z,50.50
2024-05-09T18:58:10.627Z,51.15
2024-05-09T19:00:41.493Z,51.52
2024-05-09T19:03:13.912Z,50.09
2024-05-09T19:05:44.971Z,50.74
2024-05-09T19:08:15.704Z,50.95
2024-05-09T19:10:46.542Z,52.15
2024-05-09T19:13:15.108Z,51.12
2024-05-09T19:15:44.305Z,52.21
2024-05-09T19:18:15.912Z,52.10
2024-05-09T19:20:45.103Z,51.64
2024-05-09T19:23:13.195Z,52.22
2024-05-09T19:25:40.988Z,51.93
2024-05-09T19:28:09.284Z,51.89
2024-05-09T19:30:41.031Z,52.06
2024-05-09T19:33:13.636Z,53.75
2024-05-09T19:35:43.963Z,52.26
2024-05-09T19:38:12.869Z,53.19
2024-05-09T19:40:42.330Z,52.63
2024-05-09T19:43:11.554Z,54.27
2024-05-09T19:45:39.577Z,54.42
2024-05-09T19:48:10.237Z,55.33
2024-05-09T19:50:43.058Z,54.34
2024-05-09T19:53:13.834Z,54.94
2024-05-09T19:55:42.319Z,56.51
2024-05-09T19:58:11.831Z,57.66
2024-05-09T20:00:42.598Z,56.86
2024-05-09T20:03:14.330Z,57.83
2024-05-09T20:05:44.894Z,57.43
2024-05-09T20:08:13.050Z,58.62
2024-05-09T20:10:41.651Z,58.31
2024-05-09T20:13:11.112Z,59.47
2024-05-09T20:15:40.313Z,58.38
2024-05-09T20:18:09.430Z,59.18
2024-05-09T20:20:41.847Z,59.28
2024-05-09T20:23:14.873Z,60.78
2024-05-09T20:25:43.852Z,62.20
2024-05-09T20:28:12.974Z,62.00
2024-05-09T20:30:42.585Z,62.80
2024-05-09T20:33:10.789Z,63.04
2024-05-09T20:35:40.146Z,63.10
2024-05-09T20:38:08.187Z,61.90
2024-05-09T20:40:38.578Z,62.22
2024-05-09T20:43:10.244Z,62.94
2024-05-09T20:45:42.310Z,64.01
2024-05-09T20:48:10.377Z,63.70
2024-05-09T20:50:41.269Z,63.53
2024-05-09T20:53:14.710Z,64.46
2024-05-09T20:55:44.751Z,64.47
2024-05-09T20:58:13.683Z,64.86
2024-05-09T21:00:44.702Z,63.71
2024-05-09T21:03:16.608Z,65.69
2024-05-09T21:05:46.361Z,64.08
2024-05-09T21:08:14.667Z,63.35
2024-05-09T21:10:43.856Z,64.21
2024-05-09T21:13:12.537Z,64.67
2024-05-09T21:15:40.589Z,64.82
2024-05-09T21:18:08.861Z,64.64
2024-05-09T21:20:37.748Z,65.77
2024-05-09T21:23:05.956Z,64.21
2024-05-09T21:25:33.699Z,63.92
2024-05-09T21:28:01.564Z,63.86
2024-05-09T21:30:38.591Z,63.50
2024-05-09T21:33:12.096Z,64.34
2024-05-09T21:35:42.735Z,64.57
2024-05-09T21:38:10.515Z,64.36
2024-05-09T21:40:39.086Z,64.96
2024-05-09T21:43:07.812Z,64.13
2024-05-09T21:45:37.244Z,64.28
2024-05-09T21:48:06.548Z,64.68
2024-05-09T21:50:40.311Z,63.47
2024-05-09T21:53:12.690Z,64.18
2024-05-09T21:55:42.995Z,64.33
2024-05-09T21:58:12.383Z,63.91
2024-05-09T22:00:42.993Z,65.35
2024-05-09T22:03:12.143Z,63.39
2024-05-09T22:05:42.607Z,63.18
2024-05-09T22:08:11.097Z,63.94
2024-05-09T22:10:40.091Z,63.99
2024-05-09T22:13:09.079Z,64.57
2024-05-09T22:15:39.648Z,63.54
2024-05-09T22:18:10.234Z,63.72
2024-05-09T22:20:45.334Z,63.57
2024-05-09T22:23:15.885Z,63.89
2024-05-09T22:25:43.934Z,64.20
2024-05-09T22:28:15.069Z,64.88
2024-05-09T22:30:44.266Z,65.73
2024-05-09T22:33:12.903Z,64.54
2024-05-09T22:35:41.380Z,64.70
2024-05-09T22:38:09.826Z,64.78
2024-05-09T22:40:46.228Z,64.47
2024-05-09T22:43:19.510Z,65.26
2024-05-09T22:45:48.135Z,64.68
2024-05-09T22:48:16.465Z,64.88
2024-05-09T22:50:44.195Z,64.86
2024-05-09T22:53:11.797Z,65.13
2024-05-09T22:55:39.467Z,65.42
2024-05-09T22:58:07.517Z,65.41
2024-05-09T23:00:35.812Z,65.95
2024-05-09T23:03:05.107Z,65.46
2024-05-09T23:05:33.421Z,66.16
2024-05-09T23:08:02.973Z,66.10
2024-05-09T23:10:36.245Z,66.56
2024-05-09T23:13:08.008Z,65.85
2024-05-09T23:15:38.109Z,66.08
2024-05-09T23:18:07.051Z,65.86
2024-05-09T23:20:38.570Z,65.53
2024-05-09T23:23:09.988Z,65.61
2024-05-09T23:25:39.757Z,65.48
2024-05-09T23:28:08.255Z,67.00
2024-05-09T23:30:39.372Z,65.90
2024-05-09T23:33:13.912Z,65.68
2024-05-09T23:35:44.455Z,66.67
2024-05-09T23:38:13.446Z,66.70
2024-05-09T23:40:42.608Z,66.33
2024-05-09T23:43:12.217Z,66.75
2024-05-09T23:45:41.798Z,65.69
2024-05-09T23:48:11.075Z,65.44
2024-05-09T23:50:40.852Z,66.59
2024-05-09T23:53:10.188Z,66.70
2024-05-09T23:55:38.991Z,66.77
2024-05-09T23:58:07.695Z,65.59
